Washington, District of Columbia
Traffic Map
Current Weather Conditions
Washington, District of Columbia
Overcast
Overcast
58°
Feels Like: 58°
Wind Chill: 58° Ceiling: 800
Heat Index: 58° Visibility: 9mi
Dew Point: 55° Wind: 0mph
Humidity: 90% Direction: ° ()
Pressure: 30.03in Gusts: 0mph
Raw Report DataKDCA 012110Z 00000KT 9SM BKN008 OVC012 14/13 A3003 RMK AO2 T01440128
Traffic Incident Summary
Active as of:
Severity:
Category:
InformationThere was an issue retrieving the traffic information for this location. Please try a different location or try again shortly.
Advertisements
Track Severe Weather on mobile